createdAt,value
2022-12-27T00:00:32.736Z,101479.59
2022-12-27T00:02:59.666Z,101473.84
2022-12-27T00:05:26.271Z,101476.91
2022-12-27T00:07:53.747Z,101477.50
2022-12-27T00:10:20.383Z,101475.91
2022-12-27T00:12:47.117Z,101467.00
2022-12-27T00:15:13.653Z,101469.44
2022-12-27T00:17:40.413Z,101467.00
2022-12-27T00:20:11.358Z,101467.31
2022-12-27T00:22:39.937Z,101474.44
2022-12-27T00:25:06.842Z,101481.28
2022-12-27T00:27:33.530Z,101475.78
2022-12-27T00:30:00.249Z,101476.56
2022-12-27T00:32:27.138Z,101474.38
2022-12-27T00:34:53.799Z,101468.03
2022-12-27T00:37:20.158Z,101474.59
2022-12-27T00:39:47.440Z,101480.44
2022-12-27T00:42:13.868Z,101487.47
2022-12-27T00:44:40.388Z,101484.63
2022-12-27T00:47:06.884Z,101489.09
2022-12-27T00:49:33.554Z,101481.53
2022-12-27T00:52:00.103Z,101496.69
2022-12-27T00:54:26.874Z,101492.88
2022-12-27T00:56:53.452Z,101497.50
2022-12-27T00:59:21.193Z,101500.78
2022-12-27T01:01:48.180Z,101492.34
2022-12-27T01:04:16.075Z,101496.97
2022-12-27T01:06:43.030Z,101498.84
2022-12-27T01:09:09.509Z,101489.59
2022-12-27T01:11:36.859Z,101492.59
2022-12-27T01:14:05.152Z,101494.22
2022-12-27T01:16:32.416Z,101497.44
2022-12-27T01:18:59.782Z,101495.13
2022-12-27T01:21:28.773Z,101496.00
2022-12-27T01:23:55.230Z,101492.06
2022-12-27T01:26:24.034Z,101496.38
2022-12-27T01:28:52.333Z,101503.91
2022-12-27T01:31:22.000Z,101504.94
2022-12-27T01:33:49.035Z,101498.19
2022-12-27T01:36:20.962Z,101498.91
2022-12-27T01:38:48.593Z,101504.44
2022-12-27T01:41:36.800Z,101508.75
2022-12-27T01:44:58.477Z,101509.94
2022-12-27T01:47:48.826Z,101518.50
2022-12-27T01:50:23.828Z,101519.16
2022-12-27T01:53:00.451Z,101501.94
2022-12-27T01:55:39.290Z,101516.69
2022-12-27T01:58:18.714Z,101506.78
2022-12-27T02:00:48.344Z,101515.28
2022-12-27T02:03:22.269Z,101511.69
2022-12-27T02:05:50.674Z,101518.78
2022-12-27T02:08:29.718Z,101516.53
2022-12-27T02:10:57.382Z,101511.94
2022-12-27T02:13:24.473Z,101507.31
2022-12-27T02:15:51.340Z,101518.13
2022-12-27T02:18:18.121Z,101522.53
2022-12-27T02:21:01.749Z,101525.34
2022-12-27T02:24:06.767Z,101530.09
2022-12-27T02:26:42.552Z,101524.31
2022-12-27T02:29:18.691Z,101523.75
2022-12-27T02:32:07.957Z,101528.06
2022-12-27T02:34:52.204Z,101528.97
2022-12-27T02:37:21.732Z,101531.06
2022-12-27T02:39:49.929Z,101533.78
2022-12-27T02:42:36.971Z,101534.59
2022-12-27T02:45:29.143Z,101539.00
2022-12-27T02:48:14.198Z,101547.66
2022-12-27T02:51:10.972Z,101544.94
2022-12-27T02:54:09.877Z,101548.00
2022-12-27T02:57:08.867Z,101546.13
2022-12-27T03:00:08.817Z,101548.22
2022-12-27T03:03:10.183Z,101542.53
2022-12-27T03:06:33.057Z,101546.03
2022-12-27T03:09:36.450Z,101544.25
2022-12-27T03:12:27.820Z,101551.19
2022-12-27T03:15:18.071Z,101544.50
2022-12-27T03:17:59.165Z,101543.88
2022-12-27T03:20:45.998Z,101541.88
2022-12-27T03:23:31.625Z,101550.97
2022-12-27T03:26:01.148Z,101558.06
2022-12-27T03:28:49.303Z,101563.78
2022-12-27T03:31:41.095Z,101563.03
2022-12-27T03:34:31.960Z,101571.22
2022-12-27T03:37:31.340Z,101567.28
2022-12-27T03:40:34.556Z,101572.97
2022-12-27T03:43:15.559Z,101568.13
2022-12-27T03:46:21.441Z,101570.66
2022-12-27T03:49:21.676Z,101568.84
2022-12-27T03:52:28.046Z,101578.75
2022-12-27T03:54:55.851Z,101575.03
2022-12-27T03:57:27.956Z,101578.94
2022-12-27T03:59:54.821Z,101581.69
2022-12-27T04:02:21.532Z,101581.19
2022-12-27T04:04:48.662Z,101583.66
2022-12-27T04:07:15.949Z,101590.75
2022-12-27T04:10:02.213Z,101598.22
2022-12-27T04:12:48.235Z,101605.41
2022-12-27T04:15:33.530Z,101608.34
2022-12-27T04:18:18.764Z,101610.03
2022-12-27T04:21:03.999Z,101595.44
2022-12-27T04:23:49.131Z,101590.59
2022-12-27T04:26:34.461Z,101588.69
2022-12-27T04:29:19.687Z,101590.44
2022-12-27T04:32:04.839Z,101588.81
2022-12-27T04:34:44.399Z,101582.88
2022-12-27T04:37:14.132Z,101590.47
2022-12-27T04:39:41.864Z,101570.06
2022-12-27T04:42:28.443Z,101575.34
2022-12-27T04:45:15.509Z,101574.81
2022-12-27T04:48:02.789Z,101569.75
2022-12-27T04:50:50.716Z,101576.13
2022-12-27T04:53:38.595Z,101583.66
2022-12-27T04:56:06.218Z,101585.22
2022-12-27T04:58:33.142Z,101575.53
2022-12-27T05:01:21.479Z,101590.00
2022-12-27T05:03:51.516Z,101589.47
2022-12-27T05:06:18.740Z,101590.00
2022-12-27T05:09:24.164Z,101590.38
2022-12-27T05:12:09.649Z,101587.19
2022-12-27T05:14:37.125Z,101585.03
2022-12-27T05:17:03.667Z,101585.69
2022-12-27T05:19:30.208Z,101573.50
2022-12-27T05:22:15.647Z,101570.31
2022-12-27T05:25:00.814Z,101581.75
2022-12-27T05:27:27.997Z,101580.16
2022-12-27T05:29:54.869Z,101582.03
2022-12-27T05:32:21.397Z,101591.81
2022-12-27T05:34:48.116Z,101592.63
2022-12-27T05:37:14.777Z,101600.56
2022-12-27T05:39:41.237Z,101603.03
2022-12-27T05:42:07.790Z,101597.91
2022-12-27T05:44:34.272Z,101596.50
2022-12-27T05:47:00.952Z,101599.00
2022-12-27T05:49:27.686Z,101599.91
2022-12-27T05:51:54.147Z,101595.22
2022-12-27T05:54:20.639Z,101602.09
2022-12-27T05:56:47.232Z,101608.09
2022-12-27T05:59:14.011Z,101607.00
2022-12-27T06:01:40.599Z,101617.41
2022-12-27T06:04:07.157Z,101617.19
2022-12-27T06:06:34.739Z,101611.72
2022-12-27T06:09:01.301Z,101607.25
2022-12-27T06:11:27.964Z,101619.06
2022-12-27T06:13:54.803Z,101615.31
2022-12-27T06:16:22.670Z,101620.16
2022-12-27T06:18:50.005Z,101620.09
2022-12-27T06:21:18.014Z,101628.50
2022-12-27T06:23:46.296Z,101634.09
2022-12-27T06:26:15.740Z,101631.63
2022-12-27T06:28:42.915Z,101634.09
2022-12-27T06:31:09.475Z,101626.19
2022-12-27T06:33:36.147Z,101622.75
2022-12-27T06:36:10.116Z,101628.28
2022-12-27T06:38:38.402Z,101636.63
2022-12-27T06:41:06.899Z,101639.00
2022-12-27T06:43:34.492Z,101636.94
2022-12-27T06:46:04.878Z,101648.06
2022-12-27T06:48:31.806Z,101652.13
2022-12-27T06:50:59.234Z,101652.72
2022-12-27T06:53:26.021Z,101663.22
2022-12-27T06:55:52.591Z,101653.31
2022-12-27T06:58:19.157Z,101656.22
2022-12-27T07:00:45.771Z,101657.19
2022-12-27T07:03:12.336Z,101659.66
2022-12-27T07:05:39.247Z,101664.84
2022-12-27T07:08:06.174Z,101665.31
2022-12-27T07:10:32.978Z,101671.44
2022-12-27T07:12:59.886Z,101674.69
2022-12-27T07:15:26.744Z,101673.56
2022-12-27T07:17:53.226Z,101674.34
2022-12-27T07:20:19.970Z,101676.09
2022-12-27T07:22:46.388Z,101683.94
2022-12-27T07:25:13.111Z,101684.69
2022-12-27T07:27:39.932Z,101693.41
2022-12-27T07:30:07.394Z,101688.31
2022-12-27T07:32:34.209Z,101696.88
2022-12-27T07:35:00.882Z,101697.50
2022-12-27T07:37:27.577Z,101707.00
2022-12-27T07:39:54.241Z,101716.53
2022-12-27T07:42:20.725Z,101710.75
2022-12-27T07:44:47.140Z,101707.38
2022-12-27T07:47:13.900Z,101704.50
2022-12-27T07:49:40.454Z,101712.63
2022-12-27T07:52:07.171Z,101713.38
2022-12-27T07:54:33.868Z,101719.47
2022-12-27T07:57:00.387Z,101717.91
2022-12-27T07:59:27.501Z,101717.19
2022-12-27T08:02:06.488Z,101710.94
2022-12-27T08:04:37.025Z,101724.16
2022-12-27T08:07:07.724Z,101723.06
2022-12-27T08:09:37.957Z,101722.38
2022-12-27T08:12:04.715Z,101713.41
2022-12-27T08:14:31.542Z,101702.63
2022-12-27T08:17:02.902Z,101721.25
2022-12-27T08:19:29.442Z,101725.06
2022-12-27T08:21:55.848Z,101728.50
2022-12-27T08:24:22.388Z,101729.31
2022-12-27T08:26:49.362Z,101724.16
2022-12-27T08:29:16.003Z,101721.72
2022-12-27T08:31:42.794Z,101730.72
2022-12-27T08:34:09.277Z,101726.09
2022-12-27T08:36:54.751Z,101732.84
2022-12-27T08:39:22.224Z,101725.69
2022-12-27T08:41:48.758Z,101734.69
2022-12-27T08:44:15.176Z,101733.06
2022-12-27T08:46:41.730Z,101741.81
2022-12-27T08:49:08.687Z,101737.00
2022-12-27T08:51:40.822Z,101739.94
2022-12-27T08:54:09.305Z,101740.00
2022-12-27T08:56:37.198Z,101741.31
2022-12-27T08:59:04.299Z,101741.06
2022-12-27T09:01:31.036Z,101742.94
2022-12-27T09:03:57.629Z,101746.44
2022-12-27T09:06:25.741Z,101742.38
2022-12-27T09:08:54.521Z,101751.38
2022-12-27T09:11:24.690Z,101748.00
2022-12-27T09:13:51.616Z,101750.19
2022-12-27T09:16:24.490Z,101738.03
2022-12-27T09:18:53.115Z,101744.47
2022-12-27T09:21:21.132Z,101743.00
2022-12-27T09:23:48.699Z,101752.00
2022-12-27T09:26:18.025Z,101763.56
2022-12-27T09:28:45.364Z,101769.16
2022-12-27T09:31:13.706Z,101762.31
2022-12-27T09:33:40.731Z,101766.41
2022-12-27T09:36:12.577Z,101763.63
2022-12-27T09:38:41.134Z,101772.25
2022-12-27T09:42:11.831Z,101768.53
2022-12-27T09:44:26.081Z,101755.72
2022-12-27T09:47:06.020Z,101749.97
2022-12-27T09:49:41.540Z,101746.19
2022-12-27T09:52:18.907Z,101749.72
2022-12-27T09:55:02.677Z,101752.34
2022-12-27T09:57:41.321Z,101758.19
2022-12-27T10:00:32.787Z,101761.56
2022-12-27T10:03:06.378Z,101763.38
2022-12-27T10:05:36.959Z,101772.59
2022-12-27T10:08:43.241Z,101767.13
2022-12-27T10:11:36.271Z,101773.47
2022-12-27T10:14:24.740Z,101771.41
2022-12-27T10:17:09.456Z,101768.88
2022-12-27T10:20:02.273Z,101764.44
2022-12-27T10:22:55.040Z,101760.09
2022-12-27T10:25:24.369Z,101751.13
2022-12-27T10:27:55.236Z,101743.59
2022-12-27T10:30:22.425Z,101745.41
2022-12-27T10:32:50.442Z,101733.03
2022-12-27T10:35:19.291Z,101750.59
2022-12-27T10:37:47.132Z,101745.75
2022-12-27T10:40:22.496Z,101744.19
2022-12-27T10:43:18.217Z,101731.50
2022-12-27T10:45:45.633Z,101734.44
2022-12-27T10:48:47.456Z,101725.50
2022-12-27T10:51:16.352Z,101727.13
2022-12-27T10:53:45.791Z,101737.50
2022-12-27T10:56:24.661Z,101738.25
2022-12-27T10:59:04.426Z,101739.25
2022-12-27T11:01:32.623Z,101741.19
2022-12-27T11:04:12.990Z,101740.66
2022-12-27T11:06:48.132Z,101739.41
2022-12-27T11:09:26.945Z,101742.75
2022-12-27T11:12:32.158Z,101752.91
2022-12-27T11:14:59.931Z,101743.69
2022-12-27T11:17:36.873Z,101742.91
2022-12-27T11:20:19.639Z,101742.63
2022-12-27T11:22:54.456Z,101745.56
2022-12-27T11:25:21.795Z,101757.09
2022-12-27T11:27:52.111Z,101740.59
2022-12-27T11:30:25.298Z,101738.53
2022-12-27T11:32:53.021Z,101743.13
2022-12-27T11:35:22.894Z,101738.53
2022-12-27T11:37:50.996Z,101739.38
2022-12-27T11:40:37.725Z,101738.34
2022-12-27T11:43:09.911Z,101745.97
2022-12-27T11:45:49.068Z,101746.25
2022-12-27T11:48:38.499Z,101757.94
2022-12-27T11:51:23.771Z,101748.75
2022-12-27T11:54:36.206Z,101752.69
2022-12-27T11:57:12.417Z,101747.13
2022-12-27T11:59:52.860Z,101748.47
2022-12-27T12:02:30.661Z,101741.69
2022-12-27T12:05:25.153Z,101743.72
2022-12-27T12:08:00.924Z,101747.25
2022-12-27T12:10:46.129Z,101741.22
2022-12-27T12:13:21.611Z,101741.44
2022-12-27T12:16:30.761Z,101735.25
2022-12-27T12:19:30.604Z,101742.38
2022-12-27T12:22:15.171Z,101738.97
2022-12-27T12:24:50.729Z,101735.97
2022-12-27T12:27:54.980Z,101728.34
2022-12-27T12:30:36.696Z,101722.31
2022-12-27T12:33:33.429Z,101723.66
2022-12-27T12:36:33.360Z,101728.63
2022-12-27T12:39:22.117Z,101713.88
2022-12-27T12:42:16.223Z,101704.59
2022-12-27T12:45:04.906Z,101704.03
2022-12-27T12:47:52.580Z,101705.19
2022-12-27T12:50:28.950Z,101696.41
2022-12-27T12:53:01.325Z,101703.16
2022-12-27T12:55:38.529Z,101695.13
2022-12-27T12:58:20.932Z,101696.06
2022-12-27T13:01:14.091Z,101696.78
2022-12-27T13:04:01.502Z,101683.53
2022-12-27T13:06:50.174Z,101690.19
2022-12-27T13:09:36.809Z,101682.31
2022-12-27T13:12:13.865Z,101681.91
2022-12-27T13:14:47.021Z,101683.63
2022-12-27T13:17:21.115Z,101679.97
2022-12-27T13:20:06.576Z,101671.91
2022-12-27T13:23:08.470Z,101669.94
2022-12-27T13:26:12.126Z,101677.88
2022-12-27T13:29:06.918Z,101661.50
2022-12-27T13:31:57.637Z,101657.19
2022-12-27T13:34:45.836Z,101665.25
2022-12-27T13:37:30.437Z,101660.34
2022-12-27T13:40:16.900Z,101652.22
2022-12-27T13:43:19.610Z,101651.50
2022-12-27T13:46:18.418Z,101653.81
2022-12-27T13:49:00.755Z,101654.78
2022-12-27T13:51:49.754Z,101651.31
2022-12-27T13:54:53.963Z,101653.69
2022-12-27T13:57:30.643Z,101654.88
2022-12-27T14:00:14.476Z,101657.34
2022-12-27T14:03:14.780Z,101650.50
2022-12-27T14:06:01.823Z,101648.53
2022-12-27T14:08:37.571Z,101639.72
2022-12-27T14:11:28.722Z,101634.00
2022-12-27T14:13:58.526Z,101635.34
2022-12-27T14:16:42.650Z,101635.63
2022-12-27T14:19:31.171Z,101634.84
2022-12-27T14:22:07.574Z,101622.25
2022-12-27T14:24:53.193Z,101628.28
2022-12-27T14:27:44.447Z,101623.91
2022-12-27T14:30:32.144Z,101626.50
2022-12-27T14:33:33.076Z,101627.44
2022-12-27T14:35:59.806Z,101635.13
2022-12-27T14:38:29.182Z,101637.94
2022-12-27T14:41:17.013Z,101636.94
2022-12-27T14:44:01.615Z,101637.94
2022-12-27T14:46:49.266Z,101645.63
2022-12-27T14:49:25.677Z,101645.63
2022-12-27T14:52:11.866Z,101641.88
2022-12-27T14:55:06.819Z,101645.09
2022-12-27T14:57:53.130Z,101629.59
2022-12-27T15:00:22.586Z,101634.63
2022-12-27T15:03:17.180Z,101631.22
2022-12-27T15:06:04.327Z,101642.84
2022-12-27T15:08:53.058Z,101636.97
2022-12-27T15:11:43.615Z,101640.72
2022-12-27T15:14:33.440Z,101637.94
2022-12-27T15:17:20.974Z,101640.06
2022-12-27T15:19:53.517Z,101636.13
2022-12-27T15:22:41.265Z,101625.63
2022-12-27T15:25:32.614Z,101625.78
2022-12-27T15:28:11.227Z,101620.41
2022-12-27T15:31:04.993Z,101620.28
2022-12-27T15:34:08.669Z,101631.03
2022-12-27T15:36:47.159Z,101635.28
2022-12-27T15:39:35.559Z,101635.38
2022-12-27T15:42:08.628Z,101634.00
2022-12-27T15:44:53.764Z,101635.22
2022-12-27T15:47:39.687Z,101634.84
2022-12-27T15:50:20.095Z,101639.00
2022-12-27T15:53:14.766Z,101629.66
2022-12-27T15:56:08.437Z,101627.69
2022-12-27T15:58:35.239Z,101623.16
2022-12-27T16:01:29.577Z,101626.88
2022-12-27T16:03:58.475Z,101627.91
2022-12-27T16:06:34.538Z,101626.91
2022-12-27T16:09:33.976Z,101620.56
2022-12-27T16:12:09.311Z,101620.38
2022-12-27T16:14:41.944Z,101617.50
2022-12-27T16:17:52.004Z,101608.34
2022-12-27T16:20:21.462Z,101616.03
2022-12-27T16:22:59.072Z,101613.31
2022-12-27T16:25:31.102Z,101603.50
2022-12-27T16:28:06.245Z,101588.63
2022-12-27T16:30:40.937Z,101603.97
2022-12-27T16:33:33.321Z,101602.72
2022-12-27T16:36:16.808Z,101604.91
2022-12-27T16:38:57.553Z,101597.63
2022-12-27T16:41:56.544Z,101612.03
2022-12-27T16:44:26.255Z,101601.09
2022-12-27T16:46:56.283Z,101600.78
2022-12-27T16:49:30.668Z,101603.06
2022-12-27T16:52:12.494Z,101600.00
2022-12-27T16:54:57.737Z,101596.75
2022-12-27T16:57:24.394Z,101592.44
2022-12-27T17:00:12.591Z,101592.22
2022-12-27T17:02:45.910Z,101594.88
2022-12-27T17:05:15.487Z,101587.53
2022-12-27T17:07:55.177Z,101579.25
2022-12-27T17:10:27.858Z,101584.56
2022-12-27T17:13:00.527Z,101582.84
2022-12-27T17:15:27.989Z,101583.66
2022-12-27T17:17:58.841Z,101589.97
2022-12-27T17:20:25.812Z,101594.56
2022-12-27T17:22:57.421Z,101591.22
2022-12-27T17:25:35.142Z,101588.78
2022-12-27T17:28:07.912Z,101586.72
2022-12-27T17:30:51.872Z,101582.03
2022-12-27T17:33:37.645Z,101590.22
2022-12-27T17:36:22.529Z,101576.72
2022-12-27T17:39:19.087Z,101573.66
2022-12-27T17:42:34.182Z,101573.66
2022-12-27T17:45:30.630Z,101570.38
2022-12-27T17:48:06.499Z,101573.13
2022-12-27T17:50:35.520Z,101572.31
2022-12-27T17:53:29.712Z,101563.94
2022-12-27T17:56:36.558Z,101563.50
2022-12-27T17:59:26.747Z,101559.63
2022-12-27T18:02:05.949Z,101549.59
2022-12-27T18:04:34.773Z,101543.09
2022-12-27T18:07:06.405Z,101554.75
2022-12-27T18:09:50.528Z,101558.22
2022-12-27T18:12:26.914Z,101549.44
2022-12-27T18:15:04.993Z,101549.44
2022-12-27T18:17:48.196Z,101533.78
2022-12-27T18:20:27.197Z,101538.69
2022-12-27T18:23:02.704Z,101539.59
2022-12-27T18:25:34.131Z,101546.25
2022-12-27T18:28:20.703Z,101532.53
2022-12-27T18:31:17.899Z,101535.91
2022-12-27T18:33:57.710Z,101529.78
2022-12-27T18:36:34.376Z,101524.88
2022-12-27T18:39:24.144Z,101514.16
2022-12-27T18:41:53.313Z,101514.88
2022-12-27T18:45:03.605Z,101497.78
2022-12-27T18:47:38.088Z,101505.38
2022-12-27T18:50:06.939Z,101513.31
2022-12-27T18:52:38.324Z,101502.03
2022-12-27T18:55:17.446Z,101493.28
2022-12-27T18:57:44.726Z,101486.31
2022-12-27T19:00:16.567Z,101483.66
2022-12-27T19:02:43.520Z,101498.16
2022-12-27T19:05:22.999Z,101497.50
2022-12-27T19:07:55.412Z,101489.03
2022-12-27T19:10:25.254Z,101469.94
2022-12-27T19:12:52.451Z,101464.25
2022-12-27T19:15:24.706Z,101476.47
2022-12-27T19:17:57.890Z,101453.75
2022-12-27T19:20:27.916Z,101459.66
2022-12-27T19:22:57.253Z,101454.13
2022-12-27T19:25:28.666Z,101457.47
2022-12-27T19:28:37.414Z,101464.59
2022-12-27T19:31:19.211Z,101443.69
2022-12-27T19:33:58.550Z,101444.38
2022-12-27T19:36:32.546Z,101438.25
2022-12-27T19:39:00.190Z,101436.84
2022-12-27T19:41:27.150Z,101432.47
2022-12-27T19:43:55.034Z,101423.72
2022-12-27T19:46:27.143Z,101424.84
2022-12-27T19:51:44.923Z,101412.19
2022-12-27T19:54:22.620Z,101406.84
2022-12-27T19:56:49.616Z,101399.50
2022-12-27T19:59:19.248Z,101400.97
2022-12-27T20:01:46.037Z,101406.66
2022-12-27T20:04:14.223Z,101404.19
2022-12-27T20:06:41.549Z,101399.00
2022-12-27T20:09:17.427Z,101404.53
2022-12-27T20:11:45.609Z,101399.06
2022-12-27T20:14:14.336Z,101400.03
2022-12-27T20:16:41.102Z,101405.56
2022-12-27T20:19:11.681Z,101409.38
2022-12-27T20:21:39.547Z,101402.84
2022-12-27T20:24:06.410Z,101396.31
2022-12-27T20:26:33.235Z,101410.56
2022-12-27T20:29:00.147Z,101396.53
2022-12-27T20:31:26.778Z,101400.47
2022-12-27T20:33:55.972Z,101408.56
2022-12-27T20:36:24.248Z,101407.94
2022-12-27T20:38:51.585Z,101412.41
2022-12-27T20:41:20.745Z,101405.63
2022-12-27T20:43:47.672Z,101400.75
2022-12-27T20:46:18.328Z,101404.84
2022-12-27T20:48:46.529Z,101399.47
2022-12-27T20:51:16.788Z,101388.50
2022-12-27T20:53:44.304Z,101376.66
2022-12-27T20:56:12.744Z,101380.03
2022-12-27T20:58:39.891Z,101377.88
2022-12-27T21:01:17.379Z,101377.09
2022-12-27T21:03:44.665Z,101365.41
2022-12-27T21:06:13.045Z,101374.50
2022-12-27T21:08:47.755Z,101372.97
2022-12-27T21:11:21.980Z,101376.25
2022-12-27T21:13:50.010Z,101364.41
2022-12-27T21:16:22.897Z,101376.81
2022-12-27T21:18:49.905Z,101371.13
2022-12-27T21:21:20.223Z,101361.03
2022-12-27T21:23:47.724Z,101360.63
2022-12-27T21:26:20.055Z,101359.47
2022-12-27T21:28:47.594Z,101352.50
2022-12-27T21:31:16.138Z,101355.31
2022-12-27T21:33:42.755Z,101356.22
2022-12-27T21:36:15.528Z,101354.09
2022-12-27T21:38:43.050Z,101359.91
2022-12-27T21:41:16.640Z,101360.19
2022-12-27T21:43:44.420Z,101358.81
2022-12-27T21:46:13.984Z,101348.00
2022-12-27T21:48:40.610Z,101338.22
2022-12-27T21:51:10.048Z,101328.78
2022-12-27T21:53:38.674Z,101330.13
2022-12-27T21:56:05.737Z,101317.25
2022-12-27T21:58:33.914Z,101321.44
2022-12-27T22:01:08.643Z,101317.97
2022-12-27T22:03:39.051Z,101307.97
2022-12-27T22:06:17.179Z,101314.38
2022-12-27T22:08:46.976Z,101304.94
2022-12-27T22:11:14.405Z,101296.19
2022-12-27T22:13:41.836Z,101282.53
2022-12-27T22:16:12.837Z,101280.69
2022-12-27T22:18:44.230Z,101278.97
2022-12-27T22:21:13.611Z,101274.19
2022-12-27T22:23:42.843Z,101272.75
2022-12-27T22:26:14.577Z,101263.09
2022-12-27T22:28:41.628Z,101263.47
2022-12-27T22:31:17.308Z,101258.72
2022-12-27T22:33:43.923Z,101257.66
2022-12-27T22:36:13.897Z,101264.94
2022-12-27T22:38:40.949Z,101269.56
2022-12-27T22:41:09.038Z,101262.63
2022-12-27T22:43:35.643Z,101264.50
2022-12-27T22:46:13.023Z,101250.81
2022-12-27T22:48:41.377Z,101251.75
2022-12-27T22:51:09.430Z,101257.34
2022-12-27T22:53:36.358Z,101263.28
2022-12-27T22:56:03.240Z,101254.25
2022-12-27T22:58:32.652Z,101241.72
2022-12-27T23:00:59.529Z,101229.53
2022-12-27T23:03:26.257Z,101235.06
2022-12-27T23:06:00.180Z,101223.03
2022-12-27T23:08:26.877Z,101219.00
2022-12-27T23:10:53.681Z,101207.34
2022-12-27T23:13:22.277Z,101203.56
2022-12-27T23:15:56.926Z,101210.06
2022-12-27T23:18:23.863Z,101203.72
2022-12-27T23:21:21.836Z,101209.09
2022-12-27T23:23:37.330Z,101198.34
2022-12-27T23:26:17.644Z,101193.47
2022-12-27T23:28:46.030Z,101193.63
2022-12-27T23:31:14.057Z,101189.53
2022-12-27T23:33:42.592Z,101177.53
2022-12-27T23:36:12.354Z,101161.84
2022-12-27T23:38:40.097Z,101165.31
2022-12-27T23:41:07.966Z,101157.00
2022-12-27T23:43:52.119Z,101149.66
2022-12-27T23:46:26.595Z,101148.53
2022-12-27T23:48:54.782Z,101140.09
2022-12-27T23:51:21.971Z,101129.53
2022-12-27T23:53:48.790Z,101130.34
2022-12-27T23:56:15.233Z,101128.06
2022-12-27T23:58:42.414Z,101110.16
